createdAt,value
2018-03-29T00:02:21.456Z,2.93
2018-03-29T00:04:49.706Z,3.10
2018-03-29T00:07:18.041Z,2.33
2018-03-29T00:09:46.320Z,2.80
2018-03-29T00:12:14.571Z,2.90
2018-03-29T00:14:42.858Z,2.35
2018-03-29T00:17:11.109Z,1.73
2018-03-29T00:19:39.380Z,2.50
2018-03-29T00:22:07.658Z,2.90
2018-03-29T00:24:35.911Z,2.73
2018-03-29T00:27:04.955Z,2.80
2018-03-29T00:29:33.212Z,2.73
2018-03-29T00:32:01.468Z,2.80
2018-03-29T00:34:29.748Z,2.80
2018-03-29T00:36:58.004Z,2.80
2018-03-29T00:39:27.025Z,2.53
2018-03-29T00:41:55.296Z,2.70
2018-03-29T00:44:23.552Z,2.73
2018-03-29T00:46:52.574Z,2.90
2018-03-29T00:49:20.851Z,2.93
2018-03-29T00:51:49.100Z,3.13
2018-03-29T00:54:17.360Z,3.23
2018-03-29T00:56:46.400Z,3.27
2018-03-29T00:59:14.652Z,3.47
2018-03-29T01:01:42.943Z,2.93
2018-03-29T01:04:11.218Z,3.10
2018-03-29T01:06:39.467Z,3.03
2018-03-29T01:09:08.488Z,3.00
2018-03-29T01:11:36.763Z,3.30
2018-03-29T01:14:05.008Z,3.20
2018-03-29T01:16:34.128Z,3.40
2018-03-29T01:19:02.425Z,3.37
2018-03-29T01:21:30.673Z,3.20
2018-03-29T01:23:58.956Z,2.80
2018-03-29T01:26:27.214Z,2.80
2018-03-29T01:28:56.264Z,3.37
2018-03-29T01:31:24.516Z,3.47
2018-03-29T01:33:52.793Z,3.25
2018-03-29T01:36:21.069Z,3.30
2018-03-29T01:38:49.325Z,2.93
2018-03-29T01:41:17.581Z,3.53
2018-03-29T01:43:46.620Z,2.55
2018-03-29T01:46:14.873Z,2.63
2018-03-29T01:48:43.151Z,2.57
2018-03-29T01:51:11.412Z,2.77
2018-03-29T01:53:40.439Z,2.50
2018-03-29T01:56:08.692Z,2.77
2018-03-29T01:58:36.972Z,2.97
2018-03-29T02:01:05.222Z,2.43
2018-03-29T02:03:34.253Z,2.57
2018-03-29T02:06:02.527Z,2.07
2018-03-29T02:08:30.780Z,2.30
2018-03-29T02:10:59.793Z,2.20
2018-03-29T02:13:28.080Z,2.20
2018-03-29T02:15:56.329Z,2.13
2018-03-29T02:18:25.350Z,2.50
2018-03-29T02:20:53.620Z,2.40
2018-03-29T02:23:21.887Z,2.67
2018-03-29T02:25:50.374Z,2.00
2018-03-29T02:28:18.648Z,2.40
2018-03-29T02:30:46.905Z,3.17
2018-03-29T02:33:15.956Z,2.50
2018-03-29T02:35:44.213Z,3.00
2018-03-29T02:38:12.467Z,2.57
2018-03-29T02:40:40.728Z,3.90
2018-03-29T02:43:09.000Z,4.00
2018-03-29T02:45:38.037Z,3.87
2018-03-29T02:48:06.295Z,3.67
2018-03-29T02:50:34.580Z,3.67
2018-03-29T02:53:02.845Z,3.50
2018-03-29T02:55:31.105Z,3.63
2018-03-29T02:57:59.365Z,3.60
2018-03-29T03:00:28.403Z,3.37
2018-03-29T03:02:56.661Z,3.30
2018-03-29T03:05:24.947Z,3.37
2018-03-29T03:07:53.225Z,3.60
2018-03-29T03:10:21.472Z,3.70
2018-03-29T03:12:50.501Z,2.83
2018-03-29T03:15:18.790Z,3.27
2018-03-29T03:17:47.041Z,3.10
2018-03-29T03:20:15.295Z,3.60
2018-03-29T03:22:43.572Z,2.87
2018-03-29T03:25:12.671Z,4.03
2018-03-29T03:27:40.928Z,3.50
2018-03-29T03:30:10.003Z,3.37
2018-03-29T03:32:38.256Z,3.70
2018-03-29T03:35:06.518Z,3.87
2018-03-29T03:37:34.795Z,3.80
2018-03-29T03:40:03.045Z,3.53
2018-03-29T03:42:31.304Z,3.70
2018-03-29T03:44:59.588Z,3.67
2018-03-29T03:47:28.625Z,4.60
2018-03-29T03:49:56.900Z,4.10
2018-03-29T03:52:25.157Z,4.30
2018-03-29T03:54:53.451Z,4.57
2018-03-29T03:57:21.749Z,4.90
2018-03-29T03:59:50.052Z,3.87
2018-03-29T04:02:19.440Z,5.00
2018-03-29T04:04:47.701Z,4.70
2018-03-29T04:07:15.979Z,4.77
2018-03-29T04:09:44.244Z,3.77
2018-03-29T04:12:12.517Z,6.20
2018-03-29T04:14:40.816Z,4.35
2018-03-29T04:17:09.085Z,4.50
2018-03-29T04:19:37.348Z,4.20
2018-03-29T04:22:05.616Z,4.80
2018-03-29T04:24:33.899Z,4.78
2018-03-29T04:27:02.150Z,5.00
2018-03-29T04:29:30.413Z,4.90
2018-03-29T04:31:58.692Z,4.40
2018-03-29T04:34:26.948Z,4.93
2018-03-29T04:36:55.966Z,5.13
2018-03-29T04:39:24.246Z,5.07
2018-03-29T04:41:52.524Z,4.03
2018-03-29T04:44:20.802Z,4.83
2018-03-29T04:46:49.053Z,4.70
2018-03-29T04:49:18.086Z,5.00
2018-03-29T04:51:46.361Z,5.63
2018-03-29T04:54:14.619Z,4.70
2018-03-29T04:56:42.869Z,4.50
2018-03-29T04:59:11.906Z,4.67
2018-03-29T05:01:40.167Z,5.20
2018-03-29T05:04:08.436Z,4.20
2018-03-29T05:06:36.700Z,5.17
2018-03-29T05:09:05.717Z,4.53
2018-03-29T05:11:33.982Z,4.37
2018-03-29T05:14:02.241Z,4.50
2018-03-29T05:16:31.260Z,4.50
2018-03-29T05:18:59.537Z,4.73
2018-03-29T05:21:27.785Z,4.40
2018-03-29T05:23:56.808Z,4.00
2018-03-29T05:26:25.083Z,4.80
2018-03-29T05:28:53.351Z,5.33
2018-03-29T05:31:21.605Z,4.63
2018-03-29T05:33:50.644Z,5.05
2018-03-29T05:36:18.901Z,4.57
2018-03-29T05:38:47.173Z,4.90
2018-03-29T05:41:15.447Z,5.17
2018-03-29T05:43:43.706Z,5.10
2018-03-29T05:46:12.743Z,5.07
2018-03-29T05:48:41.057Z,5.00
2018-03-29T05:51:09.368Z,4.77
2018-03-29T05:53:37.649Z,5.23
2018-03-29T05:56:05.916Z,4.93
2018-03-29T05:58:34.173Z,4.55
2018-03-29T06:01:03.220Z,4.47
2018-03-29T06:03:31.479Z,5.20
2018-03-29T06:05:59.727Z,4.60
2018-03-29T06:08:28.773Z,5.80
2018-03-29T06:10:57.069Z,4.80
2018-03-29T06:13:25.288Z,5.77
2018-03-29T06:15:59.122Z,6.60
2018-03-29T06:18:32.395Z,5.87
2018-03-29T06:21:00.689Z,5.40
2018-03-29T06:23:28.952Z,5.90
2018-03-29T06:25:57.205Z,5.40
2018-03-29T06:28:25.489Z,5.80
2018-03-29T06:30:53.757Z,5.90
2018-03-29T06:33:22.786Z,5.90
2018-03-29T06:35:51.052Z,5.03
2018-03-29T06:38:19.317Z,5.20
2018-03-29T06:40:47.605Z,7.07
2018-03-29T06:43:15.858Z,5.30
2018-03-29T06:45:44.117Z,5.80
2018-03-29T06:48:13.174Z,6.70
2018-03-29T06:50:41.441Z,6.93
2018-03-29T06:53:09.697Z,6.27
2018-03-29T06:55:37.980Z,6.50
2018-03-29T06:58:06.232Z,7.05
2018-03-29T07:00:34.488Z,6.33
2018-03-29T07:03:03.530Z,5.93
2018-03-29T07:05:31.779Z,6.40
2018-03-29T07:08:00.057Z,6.63
2018-03-29T07:10:28.310Z,6.13
2018-03-29T07:12:57.349Z,6.97
2018-03-29T07:15:25.622Z,10.47
2018-03-29T07:17:53.885Z,8.83
2018-03-29T07:20:22.166Z,8.57
2018-03-29T07:22:50.458Z,8.20
2018-03-29T07:25:18.728Z,5.70
2018-03-29T07:27:47.008Z,6.67
2018-03-29T07:30:15.269Z,6.83
2018-03-29T07:32:43.540Z,6.43
2018-03-29T07:35:11.811Z,6.23
2018-03-29T07:37:40.089Z,6.77
2018-03-29T07:40:08.344Z,7.73
2018-03-29T07:42:37.378Z,6.87
2018-03-29T07:45:06.409Z,7.20
2018-03-29T07:47:34.669Z,6.87
2018-03-29T07:50:02.960Z,7.33
2018-03-29T07:52:31.240Z,7.43
2018-03-29T07:54:59.513Z,7.30
2018-03-29T07:57:28.228Z,7.55
2018-03-29T07:59:57.282Z,7.20
2018-03-29T08:02:25.608Z,8.90
2018-03-29T08:04:54.649Z,7.20
2018-03-29T08:07:22.929Z,8.17
2018-03-29T08:09:51.192Z,8.27
2018-03-29T08:12:19.464Z,7.80
2018-03-29T08:14:47.745Z,7.20
2018-03-29T08:17:16.003Z,7.80
2018-03-29T08:19:44.291Z,8.67
2018-03-29T08:22:12.561Z,8.40
2018-03-29T08:24:40.847Z,7.80
2018-03-29T08:27:09.128Z,8.90
2018-03-29T08:29:37.405Z,8.33
2018-03-29T08:32:05.660Z,9.07
2018-03-29T08:34:33.920Z,7.50
2018-03-29T08:37:02.192Z,7.10
2018-03-29T08:39:30.452Z,6.70
2018-03-29T08:41:59.477Z,7.40
2018-03-29T08:44:27.758Z,7.77
2018-03-29T08:46:56.017Z,7.37
2018-03-29T08:49:24.295Z,7.57
2018-03-29T08:51:52.556Z,7.30
2018-03-29T08:54:25.216Z,6.20
2018-03-29T08:56:53.468Z,7.47
2018-03-29T08:59:21.756Z,6.90
2018-03-29T09:01:50.008Z,6.43
2018-03-29T09:04:18.270Z,6.27
2018-03-29T09:06:46.649Z,6.47
2018-03-29T09:09:14.952Z,7.60
2018-03-29T09:11:43.192Z,7.97
2018-03-29T09:14:11.462Z,6.50
2018-03-29T09:16:39.784Z,6.67
2018-03-29T09:19:08.043Z,6.60
2018-03-29T09:21:36.325Z,7.03
2018-03-29T09:24:04.584Z,6.40
2018-03-29T09:26:32.872Z,6.70
2018-03-29T09:29:01.140Z,6.70
2018-03-29T09:31:29.406Z,5.87
2018-03-29T09:33:57.678Z,6.20
2018-03-29T09:36:25.935Z,6.30
2018-03-29T09:38:54.212Z,6.63
2018-03-29T09:41:22.472Z,6.30
2018-03-29T09:43:51.512Z,6.40
2018-03-29T09:46:19.782Z,6.30
2018-03-29T09:48:48.045Z,6.80
2018-03-29T09:51:16.316Z,6.50
2018-03-29T09:53:44.604Z,6.27
2018-03-29T09:56:12.863Z,6.30
2018-03-29T09:58:41.157Z,6.70
2018-03-29T10:01:09.407Z,6.77
2018-03-29T10:03:40.260Z,6.97
2018-03-29T10:06:14.049Z,6.47
2018-03-29T10:08:43.090Z,6.63
2018-03-29T10:11:11.377Z,7.20
2018-03-29T10:13:39.649Z,6.50
2018-03-29T10:16:07.948Z,7.10
2018-03-29T10:18:36.205Z,5.97
2018-03-29T10:21:04.482Z,5.80
2018-03-29T10:23:32.753Z,6.03
2018-03-29T10:26:01.016Z,6.53
2018-03-29T10:28:29.268Z,5.50
2018-03-29T10:30:57.556Z,5.57
2018-03-29T10:33:25.811Z,5.00
2018-03-29T10:35:54.855Z,4.93
2018-03-29T10:38:23.110Z,5.47
2018-03-29T10:40:51.361Z,5.07
2018-03-29T10:43:19.616Z,4.60
2018-03-29T10:45:48.652Z,5.23
2018-03-29T10:48:16.937Z,5.10
2018-03-29T10:50:45.193Z,4.77
2018-03-29T10:53:13.483Z,4.63
2018-03-29T10:55:41.762Z,4.90
2018-03-29T10:58:10.013Z,4.50
2018-03-29T11:00:38.280Z,4.80
2018-03-29T11:03:07.300Z,4.80
2018-03-29T11:05:35.611Z,4.83
2018-03-29T11:08:03.887Z,5.03
2018-03-29T11:10:32.149Z,5.53
2018-03-29T11:13:00.435Z,4.27
2018-03-29T11:15:28.744Z,4.70
2018-03-29T11:17:57.759Z,5.03
2018-03-29T11:20:26.024Z,3.93
2018-03-29T11:22:55.058Z,4.03
2018-03-29T11:25:23.321Z,4.10
2018-03-29T11:27:51.601Z,4.10
2018-03-29T11:30:19.861Z,4.97
2018-03-29T11:32:48.113Z,3.90
2018-03-29T11:35:17.144Z,3.60
2018-03-29T11:37:45.400Z,3.53
2018-03-29T11:40:13.654Z,3.73
2018-03-29T11:42:41.939Z,3.70
2018-03-29T11:45:10.960Z,3.17
2018-03-29T11:47:39.220Z,3.53
2018-03-29T11:50:07.497Z,3.87
2018-03-29T11:52:35.760Z,3.80
2018-03-29T11:55:04.773Z,4.00
2018-03-29T11:57:34.520Z,3.55
2018-03-29T12:00:02.768Z,3.77
2018-03-29T12:02:31.020Z,4.17
2018-03-29T12:05:00.077Z,3.93
2018-03-29T12:07:28.327Z,4.17
2018-03-29T12:09:56.592Z,3.60
2018-03-29T12:12:24.869Z,3.50
2018-03-29T12:14:53.129Z,2.83
2018-03-29T12:17:21.388Z,4.00
2018-03-29T12:19:50.493Z,3.37
2018-03-29T12:22:19.540Z,3.10
2018-03-29T12:24:47.805Z,3.10
2018-03-29T12:27:16.060Z,3.00
2018-03-29T12:29:44.338Z,3.00
2018-03-29T12:32:12.615Z,2.97
2018-03-29T12:34:40.886Z,2.93
2018-03-29T12:37:09.151Z,2.40
2018-03-29T12:39:37.434Z,2.27
2018-03-29T12:42:06.429Z,2.63
2018-03-29T12:44:34.709Z,2.20
2018-03-29T12:47:02.985Z,2.30
2018-03-29T12:49:31.260Z,2.40
2018-03-29T12:51:59.519Z,2.60
2018-03-29T12:54:45.614Z,3.20
2018-03-29T12:57:32.373Z,2.73
2018-03-29T13:00:00.664Z,1.97
2018-03-29T13:02:28.917Z,2.13
2018-03-29T13:04:57.193Z,2.07
2018-03-29T13:07:25.546Z,2.03
2018-03-29T13:09:53.820Z,2.58
2018-03-29T13:12:22.063Z,2.60
2018-03-29T13:14:50.340Z,2.17
2018-03-29T13:17:19.349Z,1.50
2018-03-29T13:19:47.603Z,1.73
2018-03-29T13:22:16.636Z,1.17
2018-03-29T13:24:44.897Z,1.40
2018-03-29T13:27:13.187Z,0.80
2018-03-29T13:29:41.458Z,1.20
2018-03-29T13:32:09.718Z,0.93
2018-03-29T13:34:38.764Z,0.80
2018-03-29T13:37:07.016Z,1.00
2018-03-29T13:39:35.285Z,0.60
2018-03-29T13:42:03.585Z,0.90
2018-03-29T13:44:31.845Z,1.20
2018-03-29T13:47:00.116Z,0.97
2018-03-29T13:49:28.388Z,0.93
2018-03-29T13:51:56.643Z,1.00
2018-03-29T13:54:25.696Z,0.90
2018-03-29T13:56:53.947Z,1.03
2018-03-29T13:59:22.253Z,1.00
2018-03-29T14:01:50.467Z,0.70
2018-03-29T14:04:18.741Z,0.93
2018-03-29T14:06:47.768Z,1.67
2018-03-29T14:09:16.041Z,1.40
2018-03-29T14:11:44.292Z,1.70
2018-03-29T14:14:12.552Z,0.97
2018-03-29T14:16:41.660Z,1.20
2018-03-29T14:19:10.673Z,1.07
2018-03-29T14:21:39.002Z,1.23
2018-03-29T14:24:08.046Z,0.70
2018-03-29T14:26:36.288Z,1.00
2018-03-29T14:29:05.366Z,0.70
2018-03-29T14:31:33.605Z,0.40
2018-03-29T14:34:01.876Z,0.30
2018-03-29T14:36:30.144Z,0.50
2018-03-29T14:38:58.429Z,0.50
2018-03-29T14:41:28.384Z,0.70
2018-03-29T14:43:56.624Z,0.67
2018-03-29T14:46:24.929Z,0.50
2018-03-29T14:48:53.192Z,0.57
2018-03-29T14:51:21.448Z,0.60
2018-03-29T14:53:49.740Z,0.40
2018-03-29T14:56:18.033Z,0.50
2018-03-29T14:58:46.305Z,0.60
2018-03-29T15:01:14.605Z,0.47
2018-03-29T15:03:42.869Z,0.50
2018-03-29T15:06:11.128Z,0.70
2018-03-29T15:08:39.416Z,0.63
2018-03-29T15:11:07.688Z,0.70
2018-03-29T15:13:35.974Z,1.13
2018-03-29T15:16:04.236Z,1.80
2018-03-29T15:18:32.492Z,1.90
2018-03-29T15:21:00.830Z,1.80
2018-03-29T15:23:29.869Z,1.70
2018-03-29T15:25:58.121Z,2.00
2018-03-29T15:28:26.375Z,2.33
2018-03-29T15:30:55.421Z,1.87
2018-03-29T15:33:23.684Z,1.60
2018-03-29T15:35:52.123Z,1.80
2018-03-29T15:38:21.160Z,1.60
2018-03-29T15:40:49.424Z,1.23
2018-03-29T15:43:17.693Z,1.67
2018-03-29T15:45:45.969Z,1.60
2018-03-29T15:48:14.228Z,1.80
2018-03-29T15:50:43.258Z,1.40
2018-03-29T15:53:11.537Z,1.80
2018-03-29T15:55:39.792Z,1.37
2018-03-29T15:58:08.053Z,1.50
2018-03-29T16:00:36.325Z,1.83
2018-03-29T16:03:05.352Z,1.17
2018-03-29T16:05:33.666Z,1.30
2018-03-29T16:08:01.989Z,1.00
2018-03-29T16:10:31.004Z,1.10
2018-03-29T16:12:59.264Z,0.90
2018-03-29T16:15:27.549Z,1.07
2018-03-29T16:17:55.816Z,1.50
2018-03-29T16:20:24.117Z,1.40
2018-03-29T16:22:52.382Z,1.50
2018-03-29T16:25:20.634Z,1.60
2018-03-29T16:27:48.909Z,1.43
2018-03-29T16:30:17.195Z,1.60
2018-03-29T16:32:45.465Z,1.20
2018-03-29T16:35:13.757Z,1.60
2018-03-29T16:37:42.024Z,0.97
2018-03-29T16:40:10.285Z,1.03
2018-03-29T16:42:38.563Z,0.87
2018-03-29T16:45:06.834Z,1.10
2018-03-29T16:47:35.111Z,1.13
2018-03-29T16:50:03.377Z,1.17
2018-03-29T16:52:32.406Z,1.10
2018-03-29T16:55:00.693Z,1.40
2018-03-29T16:57:28.958Z,0.80
2018-03-29T16:59:57.218Z,1.10
2018-03-29T17:02:25.538Z,1.00
2018-03-29T17:04:53.805Z,1.00
2018-03-29T17:07:22.068Z,1.23
2018-03-29T17:09:50.353Z,1.23
2018-03-29T17:12:18.623Z,1.57
2018-03-29T17:14:46.910Z,1.30
2018-03-29T17:17:15.164Z,1.10
2018-03-29T17:19:43.423Z,1.48
2018-03-29T17:22:11.708Z,1.50
2018-03-29T17:24:40.029Z,1.50
2018-03-29T17:27:08.301Z,1.40
2018-03-29T17:29:36.560Z,2.47
2018-03-29T17:32:04.848Z,1.80
2018-03-29T17:34:33.120Z,1.90
2018-03-29T17:37:01.396Z,2.10
2018-03-29T17:39:29.648Z,3.37
2018-03-29T17:41:57.956Z,1.70
2018-03-29T17:44:26.232Z,2.00
2018-03-29T17:46:54.513Z,1.90
2018-03-29T17:49:22.772Z,1.97
2018-03-29T17:51:51.043Z,2.20
2018-03-29T17:54:19.298Z,1.40
2018-03-29T17:56:47.577Z,1.60
2018-03-29T17:59:15.850Z,1.80
2018-03-29T18:01:44.158Z,1.70
2018-03-29T18:04:12.474Z,1.97
2018-03-29T18:06:41.532Z,2.57
2018-03-29T18:09:09.810Z,2.17
2018-03-29T18:11:38.069Z,4.57
2018-03-29T18:14:06.345Z,2.60
2018-03-29T18:16:34.637Z,1.83
2018-03-29T18:19:03.086Z,1.97
2018-03-29T18:21:31.412Z,2.37
2018-03-29T18:23:59.800Z,3.30
2018-03-29T18:26:29.451Z,2.00
2018-03-29T18:28:58.926Z,2.57
2018-03-29T18:31:28.273Z,2.17
2018-03-29T18:33:59.044Z,2.27
2018-03-29T18:36:28.920Z,2.10
2018-03-29T18:38:58.655Z,1.93
2018-03-29T18:41:28.674Z,2.70
2018-03-29T18:43:58.692Z,2.10
2018-03-29T18:46:28.485Z,2.43
2018-03-29T18:48:58.508Z,2.13
2018-03-29T18:51:28.672Z,2.27
2018-03-29T18:53:58.578Z,2.50
2018-03-29T18:56:28.410Z,2.57
2018-03-29T18:58:58.370Z,2.93
2018-03-29T19:01:28.292Z,2.60
2018-03-29T19:03:58.361Z,2.80
2018-03-29T19:06:29.608Z,2.23
2018-03-29T19:09:00.871Z,2.70
2018-03-29T19:11:31.490Z,3.30
2018-03-29T19:14:02.452Z,4.93
2018-03-29T19:16:32.093Z,6.10
2018-03-29T19:19:02.061Z,5.53
2018-03-29T19:21:31.850Z,5.50
2018-03-29T19:24:01.838Z,5.70
2018-03-29T19:26:31.598Z,5.77
2018-03-29T19:29:01.683Z,5.85
2018-03-29T19:31:31.554Z,4.90
2018-03-29T19:34:01.619Z,4.82
2018-03-29T19:36:31.562Z,4.53
2018-03-29T19:39:02.339Z,3.63
2018-03-29T19:41:32.083Z,3.00
2018-03-29T19:44:02.064Z,2.80
2018-03-29T19:46:31.899Z,5.70
2018-03-29T19:49:02.044Z,4.80
2018-03-29T19:51:32.714Z,5.50
2018-03-29T19:54:02.861Z,5.00
2018-03-29T19:56:32.753Z,5.37
2018-03-29T19:59:02.812Z,5.93
2018-03-29T20:01:32.627Z,4.20
2018-03-29T20:04:02.613Z,4.20
2018-03-29T20:06:32.700Z,4.17
2018-03-29T20:09:02.919Z,3.90
2018-03-29T20:11:32.954Z,4.30
2018-03-29T20:14:03.616Z,5.33
2018-03-29T20:16:33.695Z,5.93
2018-03-29T20:19:03.981Z,5.83
2018-03-29T20:21:34.791Z,7.30
2018-03-29T20:24:05.018Z,5.50
2018-03-29T20:26:35.115Z,3.40
2018-03-29T20:29:05.288Z,3.70
2018-03-29T20:31:36.193Z,3.47
2018-03-29T20:34:06.533Z,4.50
2018-03-29T20:36:36.288Z,4.07
2018-03-29T20:39:06.703Z,4.43
2018-03-29T20:41:36.516Z,3.47
2018-03-29T20:44:06.958Z,4.03
2018-03-29T20:46:36.830Z,4.30
2018-03-29T20:49:07.611Z,3.33
2018-03-29T20:51:37.694Z,3.67
2018-03-29T20:54:08.253Z,4.97
2018-03-29T20:56:38.038Z,4.57
2018-03-29T20:59:09.009Z,5.83
2018-03-29T21:01:39.086Z,4.60
2018-03-29T21:04:09.869Z,4.80
2018-03-29T21:06:39.853Z,4.27
2018-03-29T21:09:10.509Z,4.00
2018-03-29T21:11:40.596Z,5.60
2018-03-29T21:14:11.236Z,4.57
2018-03-29T21:16:41.958Z,4.03
2018-03-29T21:19:12.685Z,3.67
2018-03-29T21:21:42.601Z,4.80
2018-03-29T21:24:13.293Z,4.13
2018-03-29T21:26:43.065Z,3.70
2018-03-29T21:29:13.842Z,4.57
2018-03-29T21:31:43.733Z,5.23
2018-03-29T21:34:13.709Z,4.67
2018-03-29T21:36:43.595Z,4.17
2018-03-29T21:39:13.600Z,4.13
2018-03-29T21:41:43.625Z,4.00
2018-03-29T21:44:13.557Z,4.50
2018-03-29T21:46:44.222Z,4.47
2018-03-29T21:49:14.917Z,4.93
2018-03-29T21:51:44.885Z,4.63
2018-03-29T21:54:14.871Z,4.10
2018-03-29T21:56:44.633Z,4.63
2018-03-29T21:59:14.549Z,4.23
2018-03-29T22:01:44.263Z,5.30
2018-03-29T22:04:14.023Z,6.13
2018-03-29T22:06:42.951Z,5.40
2018-03-29T22:09:11.662Z,4.77
2018-03-29T22:11:40.131Z,4.80
2018-03-29T22:14:08.494Z,4.20
2018-03-29T22:16:36.947Z,4.60
2018-03-29T22:19:05.899Z,4.80
2018-03-29T22:21:34.244Z,4.30
2018-03-29T22:24:02.541Z,4.97
2018-03-29T22:26:30.793Z,4.73
2018-03-29T22:28:59.080Z,6.20
2018-03-29T22:31:27.344Z,3.90
2018-03-29T22:33:55.602Z,4.03
2018-03-29T22:36:23.869Z,4.73
2018-03-29T22:38:52.128Z,5.47
2018-03-29T22:41:21.156Z,3.67
2018-03-29T22:43:49.438Z,4.10
2018-03-29T22:46:17.690Z,3.80
2018-03-29T22:48:45.954Z,4.50
2018-03-29T22:51:14.987Z,4.27
2018-03-29T22:53:43.241Z,5.13
2018-03-29T22:56:11.488Z,4.10
2018-03-29T22:58:40.532Z,5.63
2018-03-29T23:01:08.800Z,5.10
2018-03-29T23:03:37.072Z,4.95
2018-03-29T23:06:05.331Z,4.63
2018-03-29T23:08:33.584Z,4.47
2018-03-29T23:11:02.641Z,4.87
2018-03-29T23:13:30.906Z,4.50
2018-03-29T23:15:59.148Z,4.00
2018-03-29T23:18:27.425Z,3.90
2018-03-29T23:20:55.677Z,3.80
2018-03-29T23:23:23.944Z,4.67
2018-03-29T23:25:52.201Z,4.10
2018-03-29T23:28:20.478Z,4.60
2018-03-29T23:30:48.733Z,5.00
2018-03-29T23:33:17.008Z,5.70
2018-03-29T23:35:45.288Z,4.37
2018-03-29T23:38:13.553Z,5.33
2018-03-29T23:40:41.808Z,4.73
2018-03-29T23:43:10.125Z,4.87
2018-03-29T23:45:38.393Z,5.30
2018-03-29T23:48:06.668Z,5.00
2018-03-29T23:50:34.926Z,4.73
2018-03-29T23:53:03.197Z,4.70
2018-03-29T23:55:31.501Z,6.17
2018-03-29T23:58:17.515Z,5.97
